^^
B2 Weather Station Historical Data
Daily Summary for December 22, 2018 Units:  English    Metric   Both
Daily Weekly Monthly Yearly Custom
  High: Low: Average:
Temperature: 38.1 °F 28.9 °F 32.6 °F
Dew Point: 35.7 °F 25.2 °F 29.2 °F
Humidity: 92% 82% 87%
Wind Speed: 12mph 0mph 5.3mph
Wind Gust: 8.9mph - -
Wind- - WSW
Pressure: 30.07 in 29.85 in -
Precipitation: 0 in    
Historical Graphs
 
 
Tabular Data for December 22, 2018
Time Temperature Dew Point Pressure Wind Wind Speed Wind Gust Humidity Rainfall Rate (Hourly) solar
00:04 30.8 °F 27.1 °F 29.85 in West 8 mph 3.3 mph 86% 0 in 0.00 W/m2
00:09 30.7 °F 27 °F 29.86 in NW 5.8 mph 2.8 mph 86% 0 in 0.00 W/m2
00:14 30.7 °F 27 °F 29.86 in West 4.6 mph 3.2 mph 86% 0 in 0.00 W/m2
00:19 30.8 °F 27.1 °F 29.86 in West 4.6 mph 1.6 mph 86% 0 in 0.00 W/m2
00:24 30.8 °F 27.1 °F 29.86 in North 4.6 mph 2.1 mph 86% 0 in 0.00 W/m2
00:29 30.8 °F 27.1 °F 29.86 in NW 4.6 mph 3.1 mph 86% 0 in 0.00 W/m2
00:34 30.8 °F 27.1 °F 29.86 in WNW 6.9 mph 3.6 mph 86% 0 in 0.00 W/m2
00:39 30.8 °F 27.4 °F 29.86 in WSW 5.8 mph 2 mph 87% 0 in 0.00 W/m2
00:44 30.8 °F 27.1 °F 29.86 in NW 4 mph 3.2 mph 86% 0 in 0.00 W/m2
00:49 30.8 °F 27.1 °F 29.86 in West 5 mph 3.5 mph 86% 0 in 0.00 W/m2
00:54 30.7 °F 27 °F 29.86 in North 5.8 mph 2.7 mph 86% 0 in 0.00 W/m2
00:59 30.6 °F 26.6 °F 29.86 in NW 6.9 mph 2.2 mph 85% 0 in 0.00 W/m2
01:04 30.6 °F 26.9 °F 29.86 in WNW 5.8 mph 3.6 mph 86% 0 in 0.00 W/m2
01:09 30.5 °F 26.8 °F 29.86 in NNW 6.9 mph 4.1 mph 86% 0 in 0.00 W/m2
01:14 30.5 °F 26.8 °F 29.87 in WNW 6 mph 3.7 mph 86% 0 in 0.00 W/m2
01:19 30.5 °F 26.8 °F 29.87 in NW 4.6 mph 2.9 mph 86% 0 in 0.00 W/m2
01:24 30.5 °F 26.8 °F 29.86 in NW 3.5 mph 2 mph 86% 0 in 0.00 W/m2
01:29 30.5 °F 26.8 °F 29.87 in WNW 5.8 mph 2.6 mph 86% 0 in 0.00 W/m2
01:34 30.5 °F 26.8 °F 29.87 in WNW 5.8 mph 2.7 mph 86% 0 in 0.00 W/m2
01:39 30.5 °F 26.8 °F 29.87 in NW 6 mph 3.4 mph 86% 0 in 0.00 W/m2
01:44 30.5 °F 26.8 °F 29.87 in WNW 5.8 mph 3.2 mph 86% 0 in 0.00 W/m2
01:49 30.5 °F 26.8 °F 29.87 in North 4.6 mph 1.8 mph 86% 0 in 0.00 W/m2
01:54 30.5 °F 26.8 °F 29.88 in NW 4.6 mph 2.4 mph 86% 0 in 0.00 W/m2
01:59 30.6 °F 26.9 °F 29.88 in WNW 4.6 mph 2 mph 86% 0 in 0.00 W/m2
02:04 30.5 °F 26.8 °F 29.88 in WNW 3.5 mph 2.8 mph 86% 0 in 0.00 W/m2
02:09 30.5 °F 26.8 °F 29.88 in WNW 4.6 mph 2 mph 86% 0 in 0.00 W/m2
02:14 30.5 °F 27.1 °F 29.88 in NW 5.8 mph 1.2 mph 87% 0 in 0.00 W/m2
02:19 30.5 °F 27.1 °F 29.88 in WNW 3.5 mph 1.8 mph 87% 0 in 0.00 W/m2
02:24 30.5 °F 27.1 °F 29.88 in West 4.6 mph 0.3 mph 87% 0 in 0.00 W/m2
02:29 30.5 °F 27.1 °F 29.89 in NW 3.5 mph 2.3 mph 87% 0 in 0.00 W/m2
02:34 30.5 °F 27.1 °F 29.89 in WNW 6.9 mph 2.5 mph 87% 0 in 0.00 W/m2
02:39 30.5 °F 27.1 °F 29.89 in WNW 3.5 mph 1.2 mph 87% 0 in 0.00 W/m2
02:44 30.5 °F 27.1 °F 29.89 in WNW 3.5 mph 1.1 mph 87% 0 in 0.00 W/m2
02:49 30.5 °F 27.1 °F 29.89 in WNW 3.5 mph 1 mph 87% 0 in 0.00 W/m2
02:54 30.5 °F 27.1 °F 29.89 in WNW 4.6 mph 3.5 mph 87% 0 in 0.00 W/m2
02:59 30.5 °F 27.1 °F 29.89 in West 5 mph 2.6 mph 87% 0 in 0.00 W/m2
03:04 30.5 °F 27.1 °F 29.89 in WNW 3.5 mph 0.7 mph 87% 0 in 0.00 W/m2
03:09 30.5 °F 27.1 °F 29.89 in WNW 2.3 mph 0.8 mph 87% 0 in 0.00 W/m2
03:14 30.5 °F 27.1 °F 29.89 in NW 3.5 mph 2 mph 87% 0 in 0.00 W/m2
03:19 30.5 °F 27.1 °F 29.89 in WNW 3.5 mph 2.4 mph 87% 0 in 0.00 W/m2
03:24 30.6 °F 27.5 °F 29.89 in WNW 3.5 mph 1.2 mph 88% 0 in 0.00 W/m2
03:29 30.5 °F 27.1 °F 29.89 in WSW 7 mph 4.6 mph 87% 0 in 0.00 W/m2
03:34 30.3 °F 26.9 °F 29.89 in NW 5.8 mph 4.8 mph 87% 0 in 0.00 W/m2
03:39 30.2 °F 26.8 °F 29.90 in West 2.3 mph 1.8 mph 87% 0 in 0.00 W/m2
03:44 30.3 °F 27.2 °F 29.90 in West 3.5 mph 2 mph 88% 0 in 0.00 W/m2
03:49 30.3 °F 27.2 °F 29.90 in WSW 9.2 mph 3.1 mph 88% 0 in 0.00 W/m2
03:54 30.2 °F 27.1 °F 29.90 in WSW 5.8 mph 2.6 mph 88% 0 in 0.00 W/m2
03:59 30.1 °F 27 °F 29.90 in SW 3.5 mph 2.1 mph 88% 0 in 0.00 W/m2
04:04 30.1 °F 27 °F 29.90 in WSW 10.4 mph 5.7 mph 88% 0 in 0.00 W/m2
04:09 30 °F 26.9 °F 29.91 in North 8 mph 3.4 mph 88% 0 in 0.00 W/m2
04:14 29.9 °F 26.8 °F 29.91 in WSW 9.2 mph 5.4 mph 88% 0 in 0.00 W/m2
04:19 29.9 °F 26.8 °F 29.91 in SW 6.9 mph 5.4 mph 88% 0 in 0.00 W/m2
04:24 29.9 °F 26.8 °F 29.91 in WSW 5 mph 3.5 mph 88% 0 in 0.00 W/m2
04:29 29.8 °F 26.7 °F 29.91 in WSW 6.9 mph 3.7 mph 88% 0 in 0.00 W/m2
04:34 29.8 °F 26.7 °F 29.91 in North 6 mph 4.8 mph 88% 0 in 0.00 W/m2
04:39 29.7 °F 26.6 °F 29.91 in North 6 mph 2.8 mph 88% 0 in 0.00 W/m2
04:44 29.7 °F 26.6 °F 29.92 in WSW 7 mph 4.4 mph 88% 0 in 0.00 W/m2
04:49 29.7 °F 26.6 °F 29.92 in West 5.8 mph 4 mph 88% 0 in 0.00 W/m2
04:54 29.6 °F 26.5 °F 29.93 in North 3.5 mph 3.3 mph 88% 0 in 0.00 W/m2
04:59 29.6 °F 26.5 °F 29.93 in WNW 2.3 mph 1.6 mph 88% 0 in 0.00 W/m2
05:04 29.6 °F 26.5 °F 29.93 in WNW 4.6 mph 1.9 mph 88% 0 in 0.00 W/m2
05:09 29.7 °F 26.6 °F 29.93 in North 2.3 mph 1.8 mph 88% 0 in 0.00 W/m2
05:14 29.7 °F 26.6 °F 29.94 in West 4.6 mph 2.5 mph 88% 0 in 0.00 W/m2
05:19 29.8 °F 26.7 °F 29.94 in WSW 5.8 mph 2.9 mph 88% 0 in 0.00 W/m2
05:24 29.8 °F 26.7 °F 29.94 in West 8 mph 2 mph 88% 0 in 0.00 W/m2
05:29 29.7 °F 26.6 °F 29.94 in WSW 3.5 mph 3.5 mph 88% 0 in 0.00 W/m2
05:34 29.6 °F 26.5 °F 29.94 in SW 7 mph 4.5 mph 88% 0 in 0.00 W/m2
05:39 29.6 °F 26.5 °F 29.94 in WSW 6.9 mph 3.8 mph 88% 0 in 0.00 W/m2
05:44 29.6 °F 26.8 °F 29.94 in WSW 5 mph 3.7 mph 89% 0 in 0.00 W/m2
05:49 29.5 °F 26.7 °F 29.94 in SW 4.6 mph 3.2 mph 89% 0 in 0.00 W/m2
05:54 29.4 °F 26.6 °F 29.95 in SSW 4.6 mph 2.7 mph 89% 0 in 0.00 W/m2
05:59 29.4 °F 26.6 °F 29.95 in SW 6.9 mph 4.2 mph 89% 0 in 0.00 W/m2
06:04 29.4 °F 26.6 °F 29.95 in WSW 4 mph 2.3 mph 89% 0 in 0.00 W/m2
06:09 29.4 °F 26.6 °F 29.95 in WSW 5 mph 2.4 mph 89% 0 in 0.00 W/m2
06:14 29.3 °F 26.5 °F 29.95 in West 6 mph 2.9 mph 89% 0 in 0.00 W/m2
06:19 29.3 °F 26.5 °F 29.95 in West 4.6 mph 0.8 mph 89% 0 in 0.00 W/m2
06:24 29.3 °F 26.5 °F 29.95 in West 2 mph 1.1 mph 89% 0 in 0.00 W/m2
06:29 29.3 °F 26.5 °F 29.95 in SW 4 mph 2.1 mph 89% 0 in 0.00 W/m2
06:34 29.2 °F 26.1 °F 29.95 in WSW 3.5 mph 1.9 mph 88% 0 in 0.00 W/m2
06:39 29.2 °F 26.1 °F 29.95 in WSW 3.5 mph 2.7 mph 88% 0 in 0.00 W/m2
06:44 29.2 °F 26.4 °F 29.95 in WSW 3.5 mph 1.8 mph 89% 0 in 0.00 W/m2
06:49 29.2 °F 26.1 °F 29.95 in WSW 4 mph 1.6 mph 88% 0 in 0.00 W/m2
06:54 29.1 °F 26 °F 29.96 in SW 5.8 mph 4.3 mph 88% 0 in 0.00 W/m2
06:59 29 °F 25.9 °F 29.96 in West 6.9 mph 3.3 mph 88% 0 in 0.00 W/m2
07:04 28.9 °F 25.8 °F 29.96 in West 3.5 mph 1.9 mph 88% 0 in 0.00 W/m2
07:09 28.9 °F 25.8 °F 29.96 in WSW 4.6 mph 3 mph 88% 0 in 0.00 W/m2
07:14 28.9 °F 25.5 °F 29.97 in West 4.6 mph 3.3 mph 87% 0 in 0.00 W/m2
07:19 28.9 °F 25.5 °F 29.97 in North 4 mph 2.8 mph 87% 0 in 0.00 W/m2
07:24 29 °F 25.6 °F 29.97 in WSW 3 mph 2.9 mph 87% 0 in 0.00 W/m2
07:29 29 °F 25.6 °F 29.97 in WSW 5 mph 2.7 mph 87% 0 in 0.00 W/m2
07:34 29.1 °F 25.7 °F 29.97 in WSW 4.6 mph 2 mph 87% 0 in 0.00 W/m2
07:39 29.1 °F 25.7 °F 29.98 in SW 5.8 mph 2.3 mph 87% 0 in 7.00 W/m2
07:44 29 °F 25.3 °F 29.98 in SW 5.8 mph 2.2 mph 86% 0 in 12.00 W/m2
07:49 29 °F 25.3 °F 29.98 in SW 4.6 mph 2.6 mph 86% 0 in 12.00 W/m2
07:54 29 °F 25.3 °F 29.98 in SSW 5.8 mph 1.9 mph 86% 0 in 16.00 W/m2
07:59 29 °F 25.3 °F 29.98 in SW 4 mph 2.3 mph 86% 0 in 16.00 W/m2
08:04 29 °F 25.3 °F 29.98 in SSW 6.9 mph 3.6 mph 86% 0 in 18.00 W/m2
08:09 29.1 °F 25.4 °F 29.98 in SSW 5 mph 2.1 mph 86% 0 in 19.00 W/m2
08:14 29.2 °F 25.5 °F 29.99 in SW 5.8 mph 4.7 mph 86% 0 in 21.00 W/m2
08:19 29.2 °F 25.5 °F 29.99 in SSW 6.9 mph 4.1 mph 86% 0 in 30.00 W/m2
08:24 29.1 °F 25.4 °F 29.99 in South 4 mph 3.2 mph 86% 0 in 32.00 W/m2
08:29 29.2 °F 25.5 °F 29.99 in SSW 7 mph 4.5 mph 86% 0 in 32.00 W/m2
08:34 29.1 °F 25.4 °F 30.00 in SSW 8.1 mph 2.5 mph 86% 0 in 42.00 W/m2
08:39 29.1 °F 25.2 °F 30.00 in North 6 mph 2.7 mph 85% 0 in 46.00 W/m2
08:44 29.1 °F 25.2 °F 30.00 in SW 3.5 mph 3.3 mph 85% 0 in 44.00 W/m2
08:49 29.2 °F 25.3 °F 30.00 in WSW 4 mph 3.5 mph 85% 0 in 49.00 W/m2
08:54 29.2 °F 25.3 °F 30.00 in SW 4.6 mph 1.9 mph 85% 0 in 53.00 W/m2
08:59 29.3 °F 25.4 °F 30.00 in SSW 5.8 mph 3.3 mph 85% 0 in 56.00 W/m2
09:04 29.6 °F 25.9 °F 30.00 in SSW 3.5 mph 1.8 mph 86% 0 in 62.00 W/m2
09:09 29.6 °F 25.9 °F 30.01 in South 8.1 mph 3.7 mph 86% 0 in 65.00 W/m2
09:14 29.7 °F 26 °F 30.01 in South 8.1 mph 4.8 mph 86% 0 in 81.00 W/m2
09:19 29.7 °F 25.7 °F 30.01 in SSE 8.1 mph 4.3 mph 85% 0 in 97.00 W/m2
09:24 29.6 °F 25.6 °F 30.01 in SW 8.1 mph 4.1 mph 85% 0 in 98.00 W/m2
09:29 29.6 °F 25.6 °F 30.01 in SW 6.9 mph 4.7 mph 85% 0 in 88.00 W/m2
09:34 29.7 °F 25.7 °F 30.01 in SSW 6.9 mph 4.1 mph 85% 0 in 88.00 W/m2
09:39 29.8 °F 25.8 °F 30.01 in South 3.5 mph 2.7 mph 85% 0 in 86.00 W/m2
09:44 29.9 °F 25.9 °F 30.02 in South 6.9 mph 4.7 mph 85% 0 in 98.00 W/m2
09:49 30 °F 26 °F 30.01 in South 6.9 mph 3.3 mph 85% 0 in 104.00 W/m2
09:54 30.1 °F 26.1 °F 30.01 in South 9.2 mph 4 mph 85% 0 in 118.00 W/m2
09:59 30.1 °F 26.1 °F 30.02 in SSW 8.1 mph 5.7 mph 85% 0 in 123.00 W/m2
10:04 30.2 °F 26.2 °F 30.02 in SSW 6.9 mph 5.5 mph 85% 0 in 114.00 W/m2
10:09 30.3 °F 26.3 °F 30.02 in South 5.8 mph 6.5 mph 85% 0 in 128.00 W/m2
10:14 30.4 °F 26.4 °F 30.02 in SSW 11.5 mph 4.8 mph 85% 0 in 130.00 W/m2
10:19 30.3 °F 26.3 °F 30.02 in South 9.2 mph 4.5 mph 85% 0 in 144.00 W/m2
10:24 30.5 °F 26.5 °F 30.01 in WSW 5.8 mph 2.7 mph 85% 0 in 137.00 W/m2
10:29 30.7 °F 26.7 °F 30.01 in SSW 8.1 mph 3.7 mph 85% 0 in 132.00 W/m2
10:34 30.9 °F 26.9 °F 30.01 in SSW 8.1 mph 3.1 mph 85% 0 in 135.00 W/m2
10:39 31 °F 27 °F 30.01 in SW 9.2 mph 5.7 mph 85% 0 in 130.00 W/m2
10:44 31.1 °F 27.1 °F 30.00 in South 6.9 mph 4.6 mph 85% 0 in 134.00 W/m2
10:49 31.2 °F 27.5 °F 30.00 in SSW 4.6 mph 4.7 mph 86% 0 in 123.00 W/m2
10:54 31.4 °F 27.7 °F 30.00 in South 5.8 mph 2.6 mph 86% 0 in 153.00 W/m2
10:59 31.4 °F 27.4 °F 30.00 in SSW 11.5 mph 6.7 mph 85% 0 in 185.00 W/m2
11:04 31 °F 26.7 °F 30.00 in SW 8.1 mph 4.9 mph 84% 0 in 192.00 W/m2
11:09 31.1 °F 26.8 °F 30.00 in South 8.1 mph 4.7 mph 84% 0 in 165.00 W/m2
11:14 31.2 °F 26.9 °F 30.00 in South 6.9 mph 2.9 mph 84% 0 in 142.00 W/m2
11:19 31.5 °F 27.5 °F 30.00 in SSW 8.1 mph 7.9 mph 85% 0 in 202.00 W/m2
11:24 31.4 °F 27.1 °F 30.00 in SSW 9.2 mph 4.4 mph 84% 0 in 171.00 W/m2
11:29 31.3 °F 27 °F 29.99 in WSW 9.2 mph 5.8 mph 84% 0 in 197.00 W/m2
11:34 31.2 °F 26.9 °F 29.99 in SSW 9.2 mph 5.8 mph 84% 0 in 181.00 W/m2
11:39 31.3 °F 27 °F 29.98 in South 8.1 mph 4.6 mph 84% 0 in 227.00 W/m2
11:44 31.5 °F 27.2 °F 29.98 in SSE 10.4 mph 8.3 mph 84% 0 in 234.00 W/m2
11:49 31.5 °F 27.5 °F 29.97 in South 9.2 mph 4.8 mph 85% 0 in 197.00 W/m2
11:54 31.5 °F 27.2 °F 29.97 in South 6.9 mph 3.1 mph 84% 0 in 211.00 W/m2
11:59 31.8 °F 27.8 °F 29.97 in SSW 10 mph 5.2 mph 85% 0 in 230.00 W/m2
12:04 32 °F 28 °F 29.97 in SSE 10.4 mph 5.1 mph 85% 0 in 251.00 W/m2
12:09 32.1 °F 27.8 °F 29.97 in SSW 6.9 mph 5 mph 84% 0 in 244.00 W/m2
12:14 32.3 °F 28 °F 29.97 in South 9.2 mph 6.1 mph 84% 0 in 251.00 W/m2
12:19 32.3 °F 28 °F 29.97 in SSE 9.2 mph 7.2 mph 84% 0 in 367.00 W/m2
12:24 32.5 °F 28.2 °F 29.97 in SSW 9.2 mph 4.5 mph 84% 0 in 155.00 W/m2
12:29 32.2 °F 27.9 °F 29.97 in SSW 6.9 mph 4 mph 84% 0 in 193.00 W/m2
12:34 32.6 °F 28.6 °F 29.97 in South 10.4 mph 6.5 mph 85% 0 in 195.00 W/m2
12:39 32.7 °F 28.7 °F 29.96 in SSW 11.5 mph 4.5 mph 85% 0 in 225.00 W/m2
12:44 33.1 °F 29.1 °F 29.96 in SSE 8.1 mph 5.5 mph 85% 0 in 276.00 W/m2
12:49 33.8 °F 29.5 °F 29.96 in South 8 mph 5 mph 84% 0 in 330.00 W/m2
12:54 33.8 °F 28.9 °F 29.95 in South 9.2 mph 5.7 mph 82% 0 in 360.00 W/m2
12:59 33.7 °F 29.1 °F 29.95 in South 11.5 mph 7.2 mph 83% 0 in 246.00 W/m2
13:04 33.6 °F 29 °F 29.95 in SSE 10.4 mph 6.3 mph 83% 0 in 195.00 W/m2
13:09 33.5 °F 29.2 °F 29.95 in SSE 8 mph 6.1 mph 84% 0 in 239.00 W/m2
13:14 33.7 °F 29.4 °F 29.95 in South 8.1 mph 5 mph 84% 0 in 302.00 W/m2
13:19 34.1 °F 29.5 °F 29.95 in South 9.2 mph 4.5 mph 83% 0 in 322.00 W/m2
13:24 34.7 °F 30.4 °F 29.95 in South 5.8 mph 2.9 mph 84% 0 in 374.00 W/m2
13:29 34.9 °F 30.3 °F 29.95 in South 8 mph 4.9 mph 83% 0 in 202.00 W/m2
13:34 34.8 °F 30.2 °F 29.95 in SSW 9.2 mph 5.4 mph 83% 0 in 294.00 W/m2
13:39 34.8 °F 29.9 °F 29.95 in SSE 6.9 mph 4.2 mph 82% 0 in 262.00 W/m2
13:44 34.9 °F 30.3 °F 29.95 in South 9.2 mph 3.9 mph 83% 0 in 211.00 W/m2
13:49 35.1 °F 30.5 °F 29.95 in SSE 9.2 mph 6.3 mph 83% 0 in 209.00 W/m2
13:54 35.2 °F 30.6 °F 29.94 in SSE 9.2 mph 7 mph 83% 0 in 294.00 W/m2
13:59 35.4 °F 30.5 °F 29.95 in SSE 11.5 mph 6.8 mph 82% 0 in 309.00 W/m2
14:04 35.7 °F 31 °F 29.95 in SSE 11.5 mph 8.1 mph 83% 0 in 271.00 W/m2
14:09 35.8 °F 30.8 °F 29.94 in SSW 9.2 mph 7 mph 82% 0 in 253.00 W/m2
14:14 35.6 °F 30.6 °F 29.94 in SSE 11.5 mph 8.9 mph 82% 0 in 250.00 W/m2
14:19 35.6 °F 30.9 °F 29.95 in North 11.5 mph 7.4 mph 83% 0 in 287.00 W/m2
14:24 35.9 °F 31.2 °F 29.94 in SSE 10.4 mph 6.8 mph 83% 0 in 265.00 W/m2
14:29 36.1 °F 31.4 °F 29.94 in SE 10.4 mph 6.1 mph 83% 0 in 248.00 W/m2
14:34 36.1 °F 31.4 °F 29.94 in North 9.2 mph 7.4 mph 83% 0 in 229.00 W/m2
14:39 36.2 °F 31.5 °F 29.95 in SSE 11.5 mph 6.9 mph 83% 0 in 236.00 W/m2
14:44 36.2 °F 31.5 °F 29.95 in SSE 8.1 mph 7.6 mph 83% 0 in 213.00 W/m2
14:49 36.3 °F 31.6 °F 29.96 in SSE 8.1 mph 6.4 mph 83% 0 in 200.00 W/m2
14:54 36.2 °F 31.5 °F 29.96 in SSE 9.2 mph 7.6 mph 83% 0 in 185.00 W/m2
14:59 36.2 °F 31.8 °F 29.95 in SSE 12 mph 7 mph 84% 0 in 60.00 W/m2
15:04 35.9 °F 31.5 °F 29.95 in SSE 10.4 mph 5.3 mph 84% 0 in 33.00 W/m2
15:09 35.6 °F 31.5 °F 29.96 in SSE 6 mph 5.4 mph 85% 0 in 26.00 W/m2
15:14 35.5 °F 31.4 °F 29.96 in SSE 5.8 mph 4.8 mph 85% 0 in 42.00 W/m2
15:19 35.4 °F 31.6 °F 29.96 in SSE 8.1 mph 3.9 mph 86% 0 in 49.00 W/m2
15:24 35.3 °F 31.8 °F 29.96 in SSE 4.6 mph 5.1 mph 87% 0 in 51.00 W/m2
15:29 35.3 °F 31.8 °F 29.96 in SSE 8.1 mph 4.2 mph 87% 0 in 44.00 W/m2
15:34 35.3 °F 31.8 °F 29.96 in SSE 8.1 mph 4.6 mph 87% 0 in 40.00 W/m2
15:39 35.4 °F 32.2 °F 29.96 in SE 5.8 mph 4.8 mph 88% 0 in 40.00 W/m2
15:44 35.5 °F 32 °F 29.96 in SE 3.5 mph 2.9 mph 87% 0 in 42.00 W/m2
15:49 35.4 °F 32.2 °F 29.96 in SE 4.6 mph 3.5 mph 88% 0 in 44.00 W/m2
15:54 35.5 °F 32.3 °F 29.96 in SE 3.5 mph 1.6 mph 88% 0 in 30.00 W/m2
15:59 35.6 °F 32.4 °F 29.97 in SE 3.5 mph 1.2 mph 88% 0 in 37.00 W/m2
16:05 35.6 °F 32.4 °F 29.97 in SE 2.3 mph 1.4 mph 88% 0 in 14.00 W/m2
16:09 35.5 °F 32 °F 29.97 in SE 3.5 mph 1.5 mph 87% 0 in 9.00 W/m2
16:14 35.1 °F 31.3 °F 29.97 in SE 2.3 mph 0.7 mph 86% 0 in 5.00 W/m2
16:19 34.8 °F 31 °F 29.97 in SE 2.3 mph 0.4 mph 86% 0 in 0.00 W/m2
16:24 34.5 °F 31 °F 29.97 in Calm     87% 0 in 0.00 W/m2
16:29 34.4 °F 30.9 °F 29.97 in Calm     87% 0 in 0.00 W/m2
16:34 34.3 °F 31.1 °F 29.97 in Calm     88% 0 in 0.00 W/m2
16:39 34.1 °F 30.9 °F 29.97 in SE 1.2 mph 0.7 mph 88% 0 in 0.00 W/m2
16:44 33.9 °F 30.7 °F 29.97 in Calm     88% 0 in 0.00 W/m2
16:49 33.8 °F 30.9 °F 29.97 in Calm     89% 0 in 0.00 W/m2
16:54 33.8 °F 30.9 °F 29.97 in SE 1.2 mph 0.2 mph 89% 0 in 0.00 W/m2
16:59 33.9 °F 31 °F 29.97 in SE 2.3 mph   89% 0 in 0.00 W/m2
17:04 34 °F 31.1 °F 29.97 in Calm     89% 0 in 0.00 W/m2
17:09 34.1 °F 31.5 °F 29.98 in Calm     90% 0 in 0.00 W/m2
17:14 34.2 °F 31.6 °F 29.98 in Calm     90% 0 in 0.00 W/m2
17:19 34.3 °F 31.7 °F 29.98 in Calm     90% 0 in 0.00 W/m2
17:24 34.4 °F 31.8 °F 29.98 in Calm     90% 0 in 0.00 W/m2
17:29 34.5 °F 31.9 °F 29.98 in Calm     90% 0 in 0.00 W/m2
17:34 34.6 °F 32 °F 29.98 in SE 3.5 mph   90% 0 in 0.00 W/m2
17:39 34.6 °F 32 °F 29.98 in Calm     90% 0 in 0.00 W/m2
17:44 34.7 °F 32.1 °F 29.98 in Calm     90% 0 in 0.00 W/m2
17:49 34.7 °F 32.1 °F 29.98 in Calm     90% 0 in 0.00 W/m2
17:54 34.6 °F 32 °F 29.98 in Calm     90% 0 in 0.00 W/m2
17:59 34.6 °F 32 °F 29.98 in Calm     90% 0 in 0.00 W/m2
18:04 34.6 °F 32 °F 29.98 in Calm     90% 0 in 0.00 W/m2
18:09 34.6 °F 32 °F 29.98 in Calm     90% 0 in 0.00 W/m2
18:14 34.7 °F 32.1 °F 29.99 in Calm     90% 0 in 0.00 W/m2
18:19 34.7 °F 32.1 °F 29.98 in Calm     90% 0 in 0.00 W/m2
18:24 34.7 °F 31.8 °F 29.98 in SE 2.3 mph 1 mph 89% 0 in 0.00 W/m2
18:29 34.8 °F 32.2 °F 29.98 in SE 4 mph 0.8 mph 90% 0 in 0.00 W/m2
18:34 34.8 °F 32.2 °F 29.98 in SE 3.5 mph   90% 0 in 0.00 W/m2
18:39 34.9 °F 32.3 °F 29.99 in Calm     90% 0 in 0.00 W/m2
18:44 35 °F 32.4 °F 29.99 in SE 2.3 mph 0.1 mph 90% 0 in 0.00 W/m2
18:49 35 °F 32.4 °F 29.99 in SE 2.3 mph   90% 0 in 0.00 W/m2
18:54 35 °F 32.4 °F 29.99 in Calm     90% 0 in 0.00 W/m2
18:59 34.9 °F 32.3 °F 29.99 in Calm     90% 0 in 0.00 W/m2
19:04 34.9 °F 32.3 °F 29.99 in Calm     90% 0 in 0.00 W/m2
19:09 34.9 °F 32.5 °F 29.99 in SE 1.2 mph   91% 0 in 0.00 W/m2
19:14 35 °F 32.6 °F 29.99 in Calm     91% 0 in 0.00 W/m2
19:19 35.2 °F 32.8 °F 29.99 in Calm   0.1 mph 91% 0 in 0.00 W/m2
19:24 35.3 °F 32.9 °F 29.98 in Calm     91% 0 in 0.00 W/m2
19:29 35.4 °F 33 °F 29.99 in Calm     91% 0 in 0.00 W/m2
19:34 35.5 °F 33.1 °F 29.99 in Calm     91% 0 in 0.00 W/m2
19:39 35.6 °F 33.5 °F 29.99 in Calm     92% 0 in 0.00 W/m2
19:44 35.8 °F 33.7 °F 29.99 in Calm     92% 0 in 0.00 W/m2
19:49 35.9 °F 33.8 °F 29.99 in Calm     92% 0 in 0.00 W/m2
19:54 36 °F 33.9 °F 29.99 in Calm     92% 0 in 0.00 W/m2
19:59 36.1 °F 34 °F 30.00 in Calm     92% 0 in 0.00 W/m2
20:04 36.2 °F 34.1 °F 30.00 in Calm     92% 0 in 0.00 W/m2
20:09 36.5 °F 34.4 °F 30.00 in Calm     92% 0 in 0.00 W/m2
20:14 36.7 °F 34.6 °F 30.00 in Calm     92% 0 in 0.00 W/m2
20:19 36.9 °F 34.5 °F 30.00 in Calm     91% 0 in 0.00 W/m2
20:24 37.1 °F 34.7 °F 30.00 in Calm     91% 0 in 0.00 W/m2
20:29 37.4 °F 35 °F 30.00 in Calm     91% 0 in 0.00 W/m2
20:34 37.6 °F 35.2 °F 30.00 in Calm     91% 0 in 0.00 W/m2
20:39 37.8 °F 35.4 °F 30.01 in SW 1.2 mph 0.1 mph 91% 0 in 0.00 W/m2
20:44 38 °F 35.6 °F 30.01 in Calm     91% 0 in 0.00 W/m2
20:49 38.1 °F 35.7 °F 30.01 in Calm     91% 0 in 0.00 W/m2
20:54 38.1 °F 35.7 °F 30.01 in Calm     91% 0 in 0.00 W/m2
20:59 38 °F 35.3 °F 30.01 in Calm     90% 0 in 0.00 W/m2
21:04 37.9 °F 35.5 °F 30.02 in West 1.2 mph 0.1 mph 91% 0 in 0.00 W/m2
21:09 37.9 °F 35.5 °F 30.02 in WSW 4 mph 2.2 mph 91% 0 in 0.00 W/m2
21:14 37.9 °F 35.5 °F 30.02 in WSW 3.5 mph 1.6 mph 91% 0 in 0.00 W/m2
21:19 37.8 °F 35.4 °F 30.02 in WSW 4 mph 2.9 mph 91% 0 in 0.00 W/m2
21:24 37.8 °F 35.4 °F 30.02 in West 4.6 mph 2 mph 91% 0 in 0.00 W/m2
21:29 37.8 °F 35.4 °F 30.02 in West 10 mph 3.3 mph 91% 0 in 0.00 W/m2
21:34 37.7 °F 35.3 °F 30.02 in North 4.6 mph 4.8 mph 91% 0 in 0.00 W/m2
21:39 37.7 °F 35.3 °F 30.03 in West 6.9 mph 3.9 mph 91% 0 in 0.00 W/m2
21:44 37.5 °F 34.8 °F 30.03 in WSW 8 mph 4.3 mph 90% 0 in 0.00 W/m2
21:49 37.3 °F 34.6 °F 30.03 in WNW 9 mph 3.2 mph 90% 0 in 0.00 W/m2
21:54 36.9 °F 34.2 °F 30.04 in West 6.9 mph 6.3 mph 90% 0 in 0.00 W/m2
21:59 36.6 °F 33.7 °F 30.04 in NW 8.1 mph 3.9 mph 89% 0 in 0.00 W/m2
22:04 36.2 °F 33.5 °F 30.05 in North 10.4 mph 5.4 mph 90% 0 in 0.00 W/m2
22:09 35.9 °F 33.3 °F 30.05 in WNW 6 mph 3.4 mph 90% 0 in 0.00 W/m2
22:14 35.7 °F 33.1 °F 30.05 in West 3 mph 2.5 mph 90% 0 in 0.00 W/m2
22:20 35.5 °F 32.9 °F 30.05 in WSW 7 mph 2.9 mph 90% 0 in 0.00 W/m2
22:24 35.3 °F 32.7 °F 30.05 in West 7 mph 4.2 mph 90% 0 in 0.00 W/m2
22:29 35.3 °F 32.7 °F 30.05 in WSW 4.6 mph 1.9 mph 90% 0 in 0.00 W/m2
22:34 35.2 °F 32.6 °F 30.05 in WNW 8.1 mph 4.9 mph 90% 0 in 0.00 W/m2
22:39 35.3 °F 32.7 °F 30.06 in WNW 5 mph 3 mph 90% 0 in 0.00 W/m2
22:45 35.3 °F 32.7 °F 30.06 in West 5.8 mph 3.3 mph 90% 0 in 0.00 W/m2
22:49 35.3 °F 32.7 °F 30.06 in WNW 4.6 mph 2.6 mph 90% 0 in 0.00 W/m2
22:54 35.2 °F 32.6 °F 30.06 in WNW 10.4 mph 3.7 mph 90% 0 in 0.00 W/m2
22:59 35 °F 32.4 °F 30.05 in North 10.4 mph 6.6 mph 90% 0 in 0.00 W/m2
23:04 34.6 °F 31.7 °F 30.06 in West 8.1 mph 6.4 mph 89% 0 in 0.00 W/m2
23:09 34.4 °F 31.5 °F 30.07 in WNW 7 mph 4.3 mph 89% 0 in 0.00 W/m2
23:14 34.2 °F 31.3 °F 30.07 in West 6.9 mph 3.2 mph 89% 0 in 0.00 W/m2
23:19 34 °F 31.1 °F 30.07 in NNW 10.4 mph 4.6 mph 89% 0 in 0.00 W/m2
23:24 33.7 °F 30.5 °F 30.07 in WSW 8.1 mph 5.2 mph 88% 0 in 0.00 W/m2
23:29 33.6 °F 30.7 °F 30.07 in NW 10.4 mph 5.4 mph 89% 0 in 0.00 W/m2
23:35 33.4 °F 30.5 °F 30.07 in SW 8.1 mph 4.3 mph 89% 0 in 0.00 W/m2
23:39 33.3 °F 30.4 °F 30.07 in WNW 9 mph 2.7 mph 89% 0 in 0.00 W/m2
23:44 33.2 °F 30.3 °F 30.07 in North 8.1 mph 4.7 mph 89% 0 in 0.00 W/m2
23:49 33.1 °F 30.2 °F 30.07 in WNW 8.1 mph 3 mph 89% 0 in 0.00 W/m2
23:54 33 °F 30.1 °F 30.07 in WNW 11.5 mph 4.9 mph 89% 0 in 0.00 W/m2
23:59 33 °F 30.4 °F 30.07 in North 9.2 mph 4.1 mph 90% 0 in 0.00 W/m2
Bourbonnais, Illinois, USA
Compliments of Weather Underground - 2 mb